createdAt,value
2023-01-02T00:04:27.055Z,0.60
2023-01-02T00:09:25.511Z,0.60
2023-01-02T00:14:22.683Z,0.60
2023-01-02T00:19:20.140Z,0.50
2023-01-02T00:24:17.407Z,0.40
2023-01-02T00:29:14.642Z,0.30
2023-01-02T00:34:11.911Z,0.40
2023-01-02T00:39:09.298Z,0.40
2023-01-02T00:44:06.422Z,0.50
2023-01-02T00:49:03.784Z,0.50
2023-01-02T00:54:07.329Z,0.40
2023-01-02T00:59:04.868Z,0.40
2023-01-02T01:04:04.970Z,0.40
2023-01-02T01:09:04.797Z,0.30
2023-01-02T01:14:02.197Z,0.20
2023-01-02T01:18:59.374Z,0.10
2023-01-02T01:23:56.895Z,0.20
2023-01-02T01:28:55.252Z,0.20
2023-01-02T01:33:55.591Z,0.10
2023-01-02T01:38:52.960Z,0.30
2023-01-02T01:43:53.723Z,0.30
2023-01-02T01:49:00.140Z,0.40
2023-01-02T01:54:07.340Z,0.50
2023-01-02T01:59:04.856Z,0.60
2023-01-02T02:04:02.536Z,0.60
2023-01-02T02:09:22.153Z,0.60
2023-01-02T02:14:19.367Z,0.70
2023-01-02T02:19:44.285Z,0.60
2023-01-02T02:25:05.895Z,0.60
2023-01-02T02:30:14.727Z,0.70
2023-01-02T02:35:30.393Z,0.70
2023-01-02T02:40:33.511Z,0.70
2023-01-02T02:45:40.749Z,0.70
2023-01-02T02:50:45.666Z,0.60
2023-01-02T02:55:49.662Z,0.70
2023-01-02T03:00:46.919Z,0.70
2023-01-02T03:06:09.624Z,0.70
2023-01-02T03:11:07.443Z,0.60
2023-01-02T03:16:23.034Z,0.60
2023-01-02T03:21:37.687Z,0.60
2023-01-02T03:26:38.999Z,0.60
2023-01-02T03:31:41.169Z,0.60
2023-01-02T03:36:41.521Z,0.70
2023-01-02T03:41:42.293Z,0.70
2023-01-02T03:47:02.592Z,0.70
2023-01-02T03:52:00.551Z,0.70
2023-01-02T03:57:00.598Z,0.60
2023-01-02T04:02:19.247Z,0.60
2023-01-02T04:07:41.228Z,0.70
2023-01-02T04:12:41.608Z,0.60
2023-01-02T04:18:02.006Z,0.60
2023-01-02T04:23:08.599Z,0.60
2023-01-02T04:28:25.515Z,0.60
2023-01-02T04:33:24.122Z,0.50
2023-01-02T04:38:22.715Z,0.50
2023-01-02T04:43:22.189Z,0.40
2023-01-02T04:48:19.693Z,0.50
2023-01-02T04:53:17.293Z,0.50
2023-01-02T04:58:15.514Z,0.50
2023-01-02T05:03:13.729Z,0.50
2023-01-02T05:08:16.152Z,0.60
2023-01-02T05:13:14.357Z,0.60
2023-01-02T05:18:12.426Z,0.50
2023-01-02T05:23:30.315Z,0.60
2023-01-02T05:28:27.503Z,0.60
2023-01-02T05:33:24.755Z,0.60
2023-01-02T05:38:22.018Z,0.60
2023-01-02T05:43:19.179Z,0.40
2023-01-02T05:48:16.550Z,0.50
2023-01-02T05:53:15.022Z,0.50
2023-01-02T05:58:15.204Z,0.60
2023-01-02T06:03:12.346Z,0.60
2023-01-02T06:08:09.800Z,0.50
2023-01-02T06:13:07.196Z,0.40
2023-01-02T06:18:04.356Z,0.40
2023-01-02T06:23:01.514Z,0.30
2023-01-02T06:27:59.555Z,0.10
2023-01-02T06:32:57.529Z,0.00
2023-01-02T06:37:54.780Z,0.00
2023-01-02T06:42:54.814Z,-0.10
2023-01-02T06:48:00.576Z,-0.10
2023-01-02T06:52:57.872Z,0.00
2023-01-02T06:57:55.044Z,0.00
2023-01-02T07:02:52.346Z,0.00
2023-01-02T07:07:49.850Z,0.00
2023-01-02T07:12:47.091Z,0.10
2023-01-02T07:17:44.485Z,0.20
2023-01-02T07:22:41.713Z,0.30
2023-01-02T07:27:39.379Z,0.30
2023-01-02T07:32:36.645Z,0.30
2023-01-02T07:37:34.102Z,0.50
2023-01-02T07:42:31.316Z,0.60
2023-01-02T07:47:28.790Z,0.60
2023-01-02T07:52:26.160Z,0.60
2023-01-02T07:57:23.556Z,0.60
2023-01-02T08:02:20.925Z,0.70
2023-01-02T08:07:18.291Z,0.80
2023-01-02T08:12:15.799Z,1.00
2023-01-02T08:17:13.118Z,1.20
2023-01-02T08:22:10.497Z,1.30
2023-01-02T08:27:07.897Z,1.60
2023-01-02T08:32:05.546Z,3.40
2023-01-02T08:37:02.815Z,6.40
2023-01-02T08:42:00.124Z,8.00
2023-01-02T08:46:57.736Z,8.60
2023-01-02T08:51:55.014Z,9.30
2023-01-02T08:56:52.405Z,9.70
2023-01-02T09:01:50.121Z,9.60
2023-01-02T09:06:48.182Z,10.70
2023-01-02T09:11:50.600Z,9.90
2023-01-02T09:16:49.954Z,9.70
2023-01-02T09:21:47.626Z,9.90
2023-01-02T09:26:45.008Z,10.70
2023-01-02T09:31:42.570Z,9.90
2023-01-02T09:36:40.341Z,10.00
2023-01-02T09:41:59.663Z,9.60
2023-01-02T09:47:00.536Z,10.00
2023-01-02T09:51:58.031Z,10.50
2023-01-02T09:57:30.537Z,10.30
2023-01-02T10:02:50.485Z,9.70
2023-01-02T10:08:31.470Z,8.90
2023-01-02T10:13:59.883Z,9.10
2023-01-02T10:18:55.787Z,8.80
2023-01-02T10:24:03.683Z,8.50
2023-01-02T10:29:16.589Z,7.20
2023-01-02T10:34:24.066Z,6.20
2023-01-02T10:39:25.063Z,5.40
2023-01-02T10:44:33.428Z,5.50
2023-01-02T10:49:32.127Z,5.10
2023-01-02T10:54:29.583Z,5.20
2023-01-02T10:59:29.371Z,5.20
2023-01-02T11:04:30.788Z,5.40
2023-01-02T11:09:30.832Z,5.70
2023-01-02T11:14:32.212Z,5.70
2023-01-02T11:19:30.080Z,5.70
2023-01-02T11:24:28.756Z,5.50
2023-01-02T11:29:31.237Z,5.40
2023-01-02T11:34:59.798Z,5.60
2023-01-02T11:40:24.449Z,5.90
2023-01-02T11:45:21.925Z,5.90
2023-01-02T11:50:26.157Z,5.80
2023-01-02T11:55:39.611Z,5.90
2023-01-02T12:00:40.361Z,5.80
2023-01-02T12:05:50.139Z,6.00
2023-01-02T12:11:04.264Z,6.30
2023-01-02T12:16:20.593Z,6.40
2023-01-02T12:21:26.499Z,6.50
2023-01-02T12:26:32.440Z,6.60
2023-01-02T12:31:29.873Z,6.70
2023-01-02T12:36:52.578Z,6.60
2023-01-02T12:42:07.750Z,6.70
2023-01-02T12:47:29.364Z,6.80
2023-01-02T12:52:45.477Z,7.00
2023-01-02T12:57:59.529Z,7.10
2023-01-02T13:03:34.590Z,7.10
2023-01-02T13:09:00.793Z,7.10
2023-01-02T13:13:58.710Z,7.20
2023-01-02T13:19:09.459Z,7.20
2023-01-02T13:24:11.496Z,7.20
2023-01-02T13:29:08.729Z,7.30
2023-01-02T13:34:22.548Z,7.20
2023-01-02T13:39:30.499Z,7.20
2023-01-02T13:44:36.533Z,7.20
2023-01-02T13:49:34.822Z,7.10
2023-01-02T13:54:36.951Z,7.10
2023-01-02T13:59:43.089Z,7.20
2023-01-02T14:04:44.191Z,7.20
2023-01-02T14:10:10.901Z,7.20
2023-01-02T14:15:22.031Z,7.20
2023-01-02T14:20:19.220Z,7.10
2023-01-02T14:25:17.482Z,7.10
2023-01-02T14:30:25.598Z,7.00
2023-01-02T14:35:28.787Z,6.90
2023-01-02T14:40:29.138Z,6.80
2023-01-02T14:45:28.405Z,6.80
2023-01-02T14:50:30.752Z,6.80
2023-01-02T14:55:37.898Z,6.70
2023-01-02T15:00:41.971Z,6.50
2023-01-02T15:05:49.732Z,6.40
2023-01-02T15:10:59.017Z,6.40
2023-01-02T15:16:00.090Z,6.40
2023-01-02T15:21:07.272Z,6.20
2023-01-02T15:26:32.712Z,6.10
2023-01-02T15:31:31.713Z,5.70
2023-01-02T15:36:34.163Z,5.30
2023-01-02T15:41:31.496Z,5.10
2023-01-02T15:46:29.341Z,4.90
2023-01-02T15:51:39.829Z,4.70
2023-01-02T15:56:40.385Z,4.60
2023-01-02T16:01:45.239Z,4.50
2023-01-02T16:06:45.820Z,4.40
2023-01-02T16:11:49.755Z,4.40
2023-01-02T16:16:50.172Z,4.30
2023-01-02T16:21:50.017Z,4.10
2023-01-02T16:26:47.554Z,4.00
2023-01-02T16:31:52.285Z,4.10
2023-01-02T16:36:49.568Z,4.00
2023-01-02T16:42:06.834Z,3.80
2023-01-02T16:47:04.323Z,3.90
2023-01-02T16:52:01.530Z,3.90
2023-01-02T16:56:58.783Z,4.00
2023-01-02T17:01:56.220Z,4.10
2023-01-02T17:06:55.305Z,4.30
2023-01-02T17:12:01.551Z,4.30
2023-01-02T17:16:59.354Z,4.40
2023-01-02T17:21:56.721Z,4.50
2023-01-02T17:26:54.174Z,4.50
2023-01-02T17:31:51.540Z,4.60
2023-01-02T17:36:49.256Z,4.70
2023-01-02T17:41:46.534Z,4.60
2023-01-02T17:47:23.370Z,4.70
2023-01-02T17:52:04.284Z,4.70
2023-01-02T17:57:01.694Z,4.50
2023-01-02T18:02:02.541Z,4.40
2023-01-02T18:07:01.647Z,4.30
2023-01-02T18:12:04.651Z,4.40
2023-01-02T18:17:15.389Z,4.90
2023-01-02T18:22:17.050Z,5.30
2023-01-02T18:27:24.615Z,5.40
2023-01-02T18:32:32.839Z,4.80
2023-01-02T18:37:30.404Z,4.30
2023-01-02T18:42:31.068Z,4.00
2023-01-02T18:47:34.631Z,3.80
2023-01-02T18:52:33.483Z,3.70
2023-01-02T18:57:35.972Z,3.70
2023-01-02T19:03:17.764Z,3.50
2023-01-02T19:08:28.785Z,3.50
2023-01-02T19:13:31.415Z,3.50
2023-01-02T19:18:42.474Z,3.30
2023-01-02T19:24:20.576Z,3.30
2023-01-02T19:29:25.055Z,3.20
2023-01-02T19:34:37.606Z,3.20
2023-01-02T19:39:42.470Z,3.10
2023-01-02T19:44:40.161Z,3.20
2023-01-02T19:49:37.402Z,3.10
2023-01-02T19:54:34.851Z,3.00
2023-01-02T19:59:41.683Z,2.90
2023-01-02T20:04:42.088Z,2.90
2023-01-02T20:09:40.164Z,2.90
2023-01-02T20:14:38.728Z,2.90
2023-01-02T20:19:37.166Z,2.90
2023-01-02T20:24:35.062Z,2.90
2023-01-02T20:29:32.796Z,2.80
2023-01-02T20:34:30.816Z,2.70
2023-01-02T20:39:28.083Z,2.70
2023-01-02T20:44:25.514Z,2.70
2023-01-02T20:49:26.374Z,2.60
2023-01-02T20:54:25.234Z,2.50
2023-01-02T20:59:23.018Z,2.50
2023-01-02T21:04:24.740Z,2.60
2023-01-02T21:09:26.453Z,2.60
2023-01-02T21:14:24.430Z,2.60
2023-01-02T21:19:21.916Z,2.40
2023-01-02T21:24:19.132Z,2.30
2023-01-02T21:29:16.403Z,2.40
2023-01-02T21:34:14.263Z,2.50
2023-01-02T21:39:15.505Z,2.30
2023-01-02T21:44:12.904Z,2.20
2023-01-02T21:49:10.280Z,2.00
2023-01-02T21:54:10.317Z,2.00
2023-01-02T21:59:07.564Z,2.10
2023-01-02T22:04:05.045Z,2.10
2023-01-02T22:09:03.620Z,2.10
2023-01-02T22:14:00.893Z,2.00
2023-01-02T22:18:58.243Z,1.90
2023-01-02T22:23:55.492Z,1.80
2023-01-02T22:28:53.064Z,1.70
2023-01-02T22:33:50.942Z,1.60
2023-01-02T22:39:17.470Z,1.70
2023-01-02T22:44:10.734Z,1.50
2023-01-02T22:49:15.290Z,1.50
2023-01-02T22:54:20.257Z,1.40
2023-01-02T22:59:17.904Z,1.50
2023-01-02T23:04:25.675Z,1.50
2023-01-02T23:09:23.038Z,1.40
2023-01-02T23:14:20.479Z,1.40
2023-01-02T23:19:19.428Z,1.40
2023-01-02T23:24:20.487Z,1.30
2023-01-02T23:29:18.893Z,1.30
2023-01-02T23:34:23.353Z,1.40
2023-01-02T23:39:24.208Z,1.30
2023-01-02T23:44:22.719Z,1.30
2023-01-02T23:49:20.686Z,1.30
2023-01-02T23:54:18.047Z,1.20
2023-01-02T23:59:21.020Z,1.20
